Time;durP1;ratioP1;P1;durP2;ratioP2;P2;SDS_P1;SDS_P2;PMS_P1;PMS_P2;Temp;Humidity;BMP_temperature;BMP_pressure;BME280_temperature;BME280_humidity;BME280_pressure;Samples;Min_cycle;Max_cycle;Signal;HPM_P1;HPM_P2
2023/06/02 00:01:02;;;;;;;9.45;4.22;;;;;;;10.83;77.44;102163.69;5033467;28;20034;-81
2023/06/02 00:03:32;;;;;;;9.57;5.13;;;;;;;10.79;77.22;102146.63;5033402;28;20021;-80
2023/06/02 00:06:06;;;;;;;10.65;4.60;;;;;;;10.93;77.54;102174.47;5033433;28;20036;-80
2023/06/02 00:08:33;;;;;;;9.90;4.07;;;;;;;10.77;76.54;102156.19;5033372;28;20033;-80
2023/06/02 00:11:00;;;;;;;13.43;4.70;;;;;;;10.81;76.94;102186.16;5015534;28;20163;-80
2023/06/02 00:13:26;;;;;;;8.20;4.25;;;;;;;10.72;76.36;102158.97;5033157;28;20029;-80
2023/06/02 00:15:52;;;;;;;11.00;3.92;;;;;;;10.47;75.59;102133.31;5032886;28;20480;-80
2023/06/02 00:18:20;;;;;;;8.98;3.70;;;;;;;10.75;75.79;102181.25;5032990;28;20040;-80
2023/06/02 00:20:46;;;;;;;12.75;4.20;;;;;;;10.74;75.57;102174.41;5032826;28;20056;-80
2023/06/02 00:23:12;;;;;;;10.40;4.18;;;;;;;10.67;74.49;102173.81;5032941;28;20029;-80
2023/06/02 00:25:39;;;;;;;10.88;3.83;;;;;;;10.62;74.88;102168.03;5032853;28;20033;-80
2023/06/02 00:28:05;;;;;;;11.57;3.63;;;;;;;10.42;74.80;102148.19;5032938;28;20087;-80
2023/06/02 00:30:31;;;;;;;8.38;3.83;;;;;;;10.57;75.22;102178.53;5032693;28;20029;-80
2023/06/02 00:32:56;;;;;;;11.73;4.40;;;;;;;10.54;74.81;102170.06;5032186;28;20455;-79
2023/06/02 00:35:22;;;;;;;12.13;4.20;;;;;;;10.44;74.84;102156.69;5032403;28;20113;-80
2023/06/02 00:37:47;;;;;;;12.63;4.07;;;;;;;10.39;75.45;102150.03;5032713;28;20381;-80
2023/06/02 00:40:13;;;;;;;11.10;3.88;;;;;;;10.52;75.49;102175.31;5032891;28;20083;-80
2023/06/02 00:42:39;;;;;;;11.43;4.05;;;;;;;10.52;75.62;102175.31;5013905;28;20033;-80
2023/06/02 00:45:05;;;;;;;14.45;4.60;;;;;;;10.53;75.83;102174.41;5032698;28;20581;-81
2023/06/02 00:47:30;;;;;;;10.45;4.25;;;;;;;10.54;75.43;102172.66;5032846;28;20049;-80
2023/06/02 00:49:57;;;;;;;10.95;4.07;;;;;;;10.33;74.27;102151.16;5032617;28;20489;-80
2023/06/02 00:52:23;;;;;;;14.95;5.07;;;;;;;10.44;73.97;102169.63;5032164;28;20056;-79
2023/06/02 00:54:48;;;;;;;11.55;5.15;;;;;;;10.41;74.38;102174.03;5032293;28;20441;-80
2023/06/02 00:57:14;;;;;;;15.35;5.07;;;;;;;10.33;74.60;102164.06;5014516;28;20061;-80
2023/06/02 00:59:39;;;;;;;11.85;4.72;;;;;;;10.10;74.01;102130.53;5032710;28;20362;-80
2023/06/02 01:02:05;;;;;;;11.60;4.30;;;;;;;10.37;75.27;102172.50;5032306;28;20531;-80
2023/06/02 01:04:31;;;;;;;12.90;4.07;;;;;;;9.90;73.65;102103.78;5032490;28;20036;-80
2023/06/02 01:07:00;;;;;;;15.55;5.32;;;;;;;10.29;74.51;102173.66;5032079;28;20022;-80
2023/06/02 01:09:27;;;;;;;10.68;4.55;;;;;;;10.21;74.36;102160.16;5014326;28;20057;-80
2023/06/02 01:11:53;;;;;;;14.82;4.43;;;;;;;10.05;74.58;102141.88;5032368;28;20029;-81
2023/06/02 01:14:18;;;;;;;14.48;4.45;;;;;;;10.28;74.24;102181.47;5032324;28;20072;-81
2023/06/02 01:16:44;;;;;;;13.52;4.57;;;;;;;10.28;74.73;102178.88;5032245;28;20053;-80
2023/06/02 01:19:14;;;;;;;12.15;3.83;;;;;;;10.35;74.82;102177.75;5032029;28;20026;-80
2023/06/02 01:21:44;;;;;;;11.82;3.75;;;;;;;10.16;74.87;102143.19;5032032;28;20056;-80
2023/06/02 01:24:09;;;;;;;13.10;3.97;;;;;;;10.17;74.75;102142.28;5032399;28;20095;-80
2023/06/02 01:26:35;;;;;;;13.95;3.90;;;;;;;10.26;74.91;102155.69;5013954;28;20034;-80
2023/06/02 01:29:04;;;;;;;11.60;4.00;;;;;;;10.39;74.79;102178.44;5014572;28;20030;-80
2023/06/02 01:31:36;;;;;;;15.00;4.53;;;;;;;10.41;74.11;102169.72;5032491;28;20026;-80
2023/06/02 01:34:01;;;;;;;13.38;3.97;;;;;;;10.46;74.38;102172.13;5031995;28;20060;-80
2023/06/02 01:36:29;;;;;;;15.15;4.32;;;;;;;10.34;73.98;102150.25;5031892;28;20061;-81
2023/06/02 01:38:57;;;;;;;10.95;4.03;;;;;;;10.15;74.83;102113.97;5031964;28;20112;-79
2023/06/02 01:41:25;;;;;;;10.38;3.53;;;;;;;10.44;75.31;102172.19;5032165;28;20026;-79
2023/06/02 01:43:52;;;;;;;11.15;4.10;;;;;;;10.32;74.61;102139.09;5034014;28;20108;-80
2023/06/02 01:46:17;;;;;;;10.98;3.72;;;;;;;10.48;75.67;102168.56;5035759;28;20050;-79
2023/06/02 01:48:42;;;;;;;12.85;4.30;;;;;;;10.27;76.15;102126.41;5035825;28;20032;-79
2023/06/02 01:51:08;;;;;;;11.52;4.40;;;;;;;10.51;74.71;102170.19;5035639;28;20032;-80
2023/06/02 01:53:33;;;;;;;11.82;4.22;;;;;;;10.51;75.35;102165.84;5035729;28;20030;-80
2023/06/02 01:55:58;;;;;;;11.25;3.85;;;;;;;10.41;75.40;102136.16;5035749;28;20021;-79
2023/06/02 01:58:25;;;;;;;14.95;4.13;;;;;;;10.49;74.71;102141.84;5035902;28;20034;-80
2023/06/02 02:00:50;;;;;;;9.77;3.83;;;;;;;10.51;74.74;102158.09;5017663;28;20396;-80
2023/06/02 02:03:17;;;;;;;13.05;4.15;;;;;;;10.61;75.81;102164.56;5035752;28;20029;-80
2023/06/02 02:05:43;;;;;;;12.02;4.10;;;;;;;10.49;76.40;102134.09;5017683;28;20033;-79
2023/06/02 02:10:40;;;;;;;8.90;4.00;;;;;;;10.65;75.69;102157.56;5053089;28;20045;-80
2023/06/02 02:13:06;;;;;;;13.45;4.63;;;;;;;10.63;75.36;102159.38;5055630;28;20424;-79
2023/06/02 02:15:31;;;;;;;11.63;3.63;;;;;;;10.64;74.56;102168.78;5036886;28;20040;-80
2023/06/02 02:17:58;;;;;;;11.73;4.05;;;;;;;10.62;75.48;102175.78;5055378;28;20025;-79
2023/06/02 02:20:25;;;;;;;10.27;3.90;;;;;;;10.59;75.25;102166.38;5055198;28;20023;-80
2023/06/02 02:22:51;;;;;;;12.95;4.40;;;;;;;10.63;75.50;102167.94;5055014;28;20029;-79
2023/06/02 02:25:17;;;;;;;11.52;3.88;;;;;;;10.66;76.15;102155.81;5055345;28;20066;-80
2023/06/02 02:27:43;;;;;;;13.50;4.45;;;;;;;10.68;75.27;102164.31;5055198;28;20400;-79
2023/06/02 02:30:08;;;;;;;9.43;4.10;;;;;;;10.68;76.00;102164.31;5036507;28;20037;-80
2023/06/02 02:32:36;;;;;;;19.08;5.63;;;;;;;10.63;75.56;102164.53;5055119;28;20047;-80
2023/06/02 02:35:03;;;;;;;11.23;3.95;;;;;;;10.51;76.46;102141.78;5054984;28;20028;-80
2023/06/02 02:37:28;;;;;;;11.40;4.13;;;;;;;10.56;76.21;102145.84;5054796;28;20033;-80
2023/06/02 02:39:53;;;;;;;11.55;4.30;;;;;;;10.65;75.94;102162.72;5055012;28;20029;-82
2023/06/02 02:42:19;;;;;;;13.68;3.67;;;;;;;10.62;76.22;102163.69;5055279;28;20025;-80
2023/06/02 02:44:45;;;;;;;12.23;3.95;;;;;;;10.59;76.36;102162.97;5036602;28;20029;-80
2023/06/02 02:47:10;;;;;;;13.40;4.43;;;;;;;10.58;76.38;102154.38;5054840;28;20082;-80
2023/06/02 02:49:35;;;;;;;11.30;4.20;;;;;;;10.56;76.98;102158.78;5036780;28;20033;-80
2023/06/02 02:52:02;;;;;;;12.43;4.43;;;;;;;10.46;76.33;102138.56;5036930;28;20099;-80
2023/06/02 02:54:27;;;;;;;15.90;4.60;;;;;;;10.51;76.17;102152.09;5036643;28;20400;-80
2023/06/02 02:56:53;;;;;;;13.00;4.70;;;;;;;10.44;75.77;102158.44;5054203;28;20017;-80
2023/06/02 02:59:18;;;;;;;13.43;4.95;;;;;;;10.43;76.31;102157.63;5054697;28;20035;-80
2023/06/02 03:01:46;;;;;;;12.05;4.30;;;;;;;10.40;76.08;102162.88;5054623;28;20519;-80
2023/06/02 03:04:22;;;;;;;13.00;4.43;;;;;;;10.10;76.38;102120.19;5054525;28;20032;-80
2023/06/02 03:06:49;;;;;;;12.95;4.32;;;;;;;10.33;75.86;102166.63;5054373;28;20096;-81
2023/06/02 03:09:17;;;;;;;10.38;3.97;;;;;;;10.24;75.45;102162.69;5044619;28;20384;-80
2023/06/02 03:11:43;;;;;;;11.93;4.65;;;;;;;9.98;75.11;102127.53;5074218;28;20078;-80
2023/06/02 03:14:09;;;;;;;12.32;4.30;;;;;;;10.09;75.25;102159.81;5074306;28;20052;-80
2023/06/02 03:16:34;;;;;;;11.52;4.28;;;;;;;10.10;75.36;102169.25;5074674;28;20400;-79
2023/06/02 03:19:02;;;;;;;10.55;4.20;;;;;;;10.03;75.55;102172.09;5074608;28;20044;-80
2023/06/02 03:21:31;;;;;;;11.60;4.18;;;;;;;9.95;76.22;102158.63;5075471;28;20384;-80
2023/06/02 03:23:57;;;;;;;15.35;4.38;;;;;;;9.85;75.96;102144.41;5057748;28;20024;-80
2023/06/02 03:26:26;;;;;;;11.30;4.50;;;;;;;10.06;76.04;102177.13;5074393;28;20419;-80
2023/06/02 03:28:52;;;;;;;11.77;3.78;;;;;;;10.06;75.54;102181.44;5074169;28;20028;-79
2023/06/02 03:31:18;;;;;;;13.38;3.75;;;;;;;10.06;76.33;102177.13;5074110;28;20020;-80
2023/06/02 03:33:43;;;;;;;11.15;4.18;;;;;;;10.01;76.01;102160.97;5073877;28;20480;-81
2023/06/02 03:36:09;;;;;;;11.40;4.00;;;;;;;10.01;76.17;102167.84;5073714;28;20047;-81
2023/06/02 03:38:34;;;;;;;14.38;4.45;;;;;;;10.08;76.47;102174.47;5074153;28;20154;-81
2023/06/02 03:41:00;;;;;;;12.65;4.55;;;;;;;10.08;75.54;102182.22;5073857;28;20428;-80
2023/06/02 03:43:25;;;;;;;10.45;3.88;;;;;;;10.04;76.18;102189.25;5073791;28;20033;-80
2023/06/02 03:45:50;;;;;;;15.88;4.05;;;;;;;9.99;75.54;102175.66;5073870;28;20102;-81
2023/06/02 03:48:16;;;;;;;12.68;4.20;;;;;;;10.02;75.25;102180.69;5055693;28;20427;-80
2023/06/02 03:50:41;;;;;;;7.95;3.67;;;;;;;9.71;76.06;102147.50;5073574;28;20602;-80
2023/06/02 03:53:06;;;;;;;13.55;4.15;;;;;;;9.83;75.21;102177.16;5073144;28;20059;-80
2023/06/02 03:55:32;;;;;;;11.77;4.25;;;;;;;9.72;74.92;102162.09;5073726;28;20029;-81
2023/06/02 03:57:57;;;;;;;10.27;3.75;;;;;;;9.85;74.67;102185.69;5054740;28;20028;-81
2023/06/02 04:00:23;;;;;;;11.30;3.60;;;;;;;9.86;75.07;102184.78;5073053;28;20043;-81
2023/06/02 04:02:48;;;;;;;11.52;4.25;;;;;;;9.90;74.88;102186.34;5073272;28;20059;-80
2023/06/02 04:05:14;;;;;;;11.18;4.20;;;;;;;9.78;74.97;102177.34;5073335;28;20028;-81
2023/06/02 04:07:40;;;;;;;9.60;3.75;;;;;;;9.83;75.03;102189.22;5072028;28;20028;-81
2023/06/02 04:10:07;;;;;;;10.40;3.83;;;;;;;9.50;75.50;102148.31;5073095;28;20404;-81
2023/06/02 04:12:32;;;;;;;11.25;4.07;;;;;;;9.81;75.09;102197.00;5073392;28;20185;-80
2023/06/02 04:14:58;;;;;;;12.55;4.20;;;;;;;9.84;75.36;102198.66;5072989;28;20493;-81
2023/06/02 04:17:25;;;;;;;11.95;4.20;;;;;;;9.89;75.89;102204.47;5054912;28;20031;-81
2023/06/02 04:19:52;;;;;;;12.20;4.07;;;;;;;9.92;75.84;102197.44;5072965;28;20495;-80
2023/06/02 04:22:18;;;;;;;9.32;3.47;;;;;;;9.81;75.67;102172.97;5072637;28;20103;-80
2023/06/02 04:24:44;;;;;;;9.98;3.60;;;;;;;9.90;75.84;102203.56;5072849;28;20063;-81
2023/06/02 04:27:10;;;;;;;11.98;4.05;;;;;;;9.92;76.26;102194.84;5072675;28;20024;-81
2023/06/02 04:29:37;;;;;;;9.15;3.20;;;;;;;9.94;75.07;102193.09;5072956;28;20035;-81
2023/06/02 04:32:02;;;;;;;9.90;3.38;;;;;;;9.73;74.92;102168.06;5072703;28;20051;-80
2023/06/02 04:34:28;;;;;;;10.02;3.90;;;;;;;9.69;74.68;102158.78;5072934;28;20021;-80
2023/06/02 04:36:53;;;;;;;9.98;3.55;;;;;;;9.92;74.39;102188.84;5072677;28;20528;-81
2023/06/02 04:39:19;;;;;;;14.32;3.55;;;;;;;9.90;75.20;102194.09;5072729;28;20020;-80
2023/06/02 04:41:49;;;;;;;13.73;3.45;;;;;;;9.60;74.76;102136.75;5072843;28;20048;-80
2023/06/02 04:44:16;;;;;;;11.90;3.30;;;;;;;9.96;74.73;102191.28;5072778;28;20369;-80
2023/06/02 04:46:42;;;;;;;11.23;3.78;;;;;;;10.00;74.63;102192.00;5072850;28;20099;-81
2023/06/02 04:49:07;;;;;;;9.43;3.40;;;;;;;9.84;74.36;102173.69;5072577;28;20059;-79
2023/06/02 04:51:33;;;;;;;9.07;3.20;;;;;;;9.95;73.67;102193.91;5072843;28;20048;-80
2023/06/02 04:53:58;;;;;;;9.95;2.90;;;;;;;9.91;73.69;102193.19;5072425;28;20036;-78
2023/06/02 04:56:26;;;;;;;12.52;3.03;;;;;;;9.81;74.25;102180.69;5072612;28;20024;-81
2023/06/02 04:58:51;;;;;;;10.80;2.92;;;;;;;10.00;73.74;102199.72;5072737;28;20020;-81
2023/06/02 05:01:17;;;;;;;15.52;3.35;;;;;;;9.85;74.17;102165.06;5072563;28;20487;-81
2023/06/02 05:03:42;;;;;;;11.48;3.65;;;;;;;10.11;73.54;102207.91;5072426;28;20028;-81
2023/06/02 05:06:07;;;;;;;9.45;3.17;;;;;;;10.00;74.04;102185.09;5072531;28;20099;-83
2023/06/02 05:08:33;;;;;;;11.63;2.97;;;;;;;10.13;74.09;102202.66;5072366;28;20412;-82
2023/06/02 05:10:58;;;;;;;11.32;3.03;;;;;;;9.87;73.66;102173.56;5054171;28;20503;-81
2023/06/02 05:13:24;;;;;;;11.30;3.20;;;;;;;9.97;74.20;102177.47;5072609;28;20468;-81
2023/06/02 05:15:49;;;;;;;14.45;3.70;;;;;;;10.19;73.93;102211.03;5072195;28;20046;-81
2023/06/02 05:18:15;;;;;;;12.43;3.10;;;;;;;10.10;73.00;102202.78;5074366;28;20077;-81
2023/06/02 05:20:41;;;;;;;17.40;3.22;;;;;;;10.12;73.75;102195.84;5079071;28;20086;-80
2023/06/02 05:23:07;;;;;;;11.02;2.63;;;;;;;10.27;72.94;102214.19;5078089;28;20046;-80
2023/06/02 05:25:33;;;;;;;11.18;3.17;;;;;;;10.06;75.01;102184.84;5079154;28;20033;-81
2023/06/02 05:27:58;;;;;;;11.65;3.08;;;;;;;10.15;73.29;102193.16;5060415;28;20101;-81
2023/06/02 05:30:23;;;;;;;13.18;2.95;;;;;;;10.08;73.86;102182.22;5079069;28;20463;-81
2023/06/02 05:32:49;;;;;;;13.25;2.83;;;;;;;10.28;73.19;102213.28;5078950;28;20513;-81
2023/06/02 05:35:14;;;;;;;10.95;3.28;;;;;;;10.18;73.81;102191.28;5078820;28;20036;-81
2023/06/02 05:37:41;;;;;;;10.38;3.28;;;;;;;10.27;72.53;102214.19;5078795;28;20027;-81
2023/06/02 05:40:22;;;;;;;12.75;2.95;;;;;;;9.98;72.89;102174.00;5078652;28;20028;-86
2023/06/02 05:42:47;;;;;;;14.98;3.60;;;;;;;10.25;72.56;102220.31;5078884;28;20020;-83
2023/06/02 05:45:13;;;;;;;13.27;3.33;;;;;;;9.63;73.50;102100.53;5059073;28;20077;-79
2023/06/02 05:47:38;;;;;;;12.27;2.90;;;;;;;10.40;72.18;102216.28;5061475;28;20048;-81
2023/06/02 05:50:04;;;;;;;11.15;3.08;;;;;;;10.46;72.47;102216.03;5079039;28;20476;-81
2023/06/02 05:52:30;;;;;;;16.08;2.92;;;;;;;10.31;72.46;102189.91;5078939;28;20032;-80
2023/06/02 05:54:55;;;;;;;11.65;2.85;;;;;;;10.50;71.79;102220.16;5078326;28;20085;-78
2023/06/02 05:57:21;;;;;;;10.68;2.63;;;;;;;10.42;71.63;102217.91;5078914;28;20020;-80
2023/06/02 05:59:46;;;;;;;12.48;3.40;;;;;;;10.17;71.34;102173.28;5078771;28;20032;-81
2023/06/02 06:02:12;;;;;;;12.10;3.13;;;;;;;10.32;71.64;102195.91;5060864;28;20159;-80
2023/06/02 06:04:37;;;;;;;12.10;2.95;;;;;;;10.52;71.54;102220.94;5078799;28;20025;-80
2023/06/02 06:07:02;;;;;;;15.35;3.50;;;;;;;10.33;72.94;102177.81;5060321;28;20040;-81
2023/06/02 06:09:28;;;;;;;13.23;2.78;;;;;;;10.60;71.16;102219.72;5067773;28;20041;-81
2023/06/02 06:11:54;;;;;;;15.30;3.10;;;;;;;10.36;72.13;102184.56;5058230;28;20025;-80
2023/06/02 06:14:19;;;;;;;12.98;3.15;;;;;;;10.38;71.63;102195.69;5058547;28;20107;-78
2023/06/02 06:16:45;;;;;;;10.75;2.67;;;;;;;10.34;71.36;102197.56;5058617;28;20120;-79
2023/06/02 06:19:10;;;;;;;11.13;2.95;;;;;;;10.39;71.91;102189.59;5058472;28;20521;-80
2023/06/02 06:21:39;;;;;;;10.85;2.95;;;;;;;10.47;71.56;102200.47;5058704;28;20031;-79
2023/06/02 06:24:07;;;;;;;12.02;3.10;;;;;;;10.56;71.41;102219.94;5058164;28;20040;-80
2023/06/02 06:26:33;;;;;;;10.70;2.72;;;;;;;10.42;71.74;102176.59;5058590;28;20025;-79
2023/06/02 06:28:58;;;;;;;13.50;3.58;;;;;;;10.82;71.30;102224.88;5058195;28;20047;-79
2023/06/02 06:31:33;;;;;;;8.88;2.78;;;;;;;9.89;70.76;102080.63;5012566;28;20061;-78
2023/06/02 06:33:59;;;;;;;9.95;2.85;;;;;;;10.86;71.72;102225.56;5035487;28;20096;-78
2023/06/02 06:36:24;;;;;;;11.68;3.03;;;;;;;10.79;71.15;102190.53;5017380;28;20026;-78
2023/06/02 06:38:50;;;;;;;13.90;3.35;;;;;;;10.96;70.59;102220.84;5035305;28;20061;-80
2023/06/02 06:41:40;;;;;;;12.48;2.63;;;;;;;11.00;70.86;102227.56;5035129;28;20056;-79
2023/06/02 06:44:04;;;;;;;13.85;2.78;;;;;;;10.98;68.95;102203.53;5034552;28;20037;-79
2023/06/02 06:46:30;;;;;;;11.18;3.10;;;;;;;11.15;68.50;102225.19;5017011;28;20041;-78
2023/06/02 06:48:55;;;;;;;9.80;3.35;;;;;;;11.17;69.27;102207.84;5035027;28;20060;-80
2023/06/02 06:51:21;;;;;;;13.50;3.22;;;;;;;11.44;69.28;102225.66;5034763;28;20021;-79
2023/06/02 06:53:46;;;;;;;11.52;3.00;;;;;;;11.31;68.32;102186.56;5034747;28;20030;-80
2023/06/02 06:58:55;;;;;;;11.55;2.47;;;;;;;11.30;67.44;102115.03;4994497;28;20047;-80
2023/06/02 07:01:24;;;;;;;11.88;2.65;;;;;;;11.59;66.52;102151.69;4995570;28;20030;-81
2023/06/02 07:03:58;;;;;;;10.65;2.80;;;;;;;11.14;65.98;102060.63;4995568;28;20505;-79
2023/06/02 07:06:23;;;;;;;10.32;2.75;;;;;;;11.79;67.39;102180.06;4995427;28;20387;-80
2023/06/02 07:08:49;;;;;;;10.55;3.00;;;;;;;12.13;64.81;102217.34;4995357;28;20018;-81
2023/06/02 07:11:20;;;;;;;14.02;3.35;;;;;;;11.37;65.36;102107.84;4976622;28;20042;-79
2023/06/02 07:13:46;;;;;;;;;;;;;;;12.14;66.70;102224.22;4995805;28;20026;-80
2023/06/02 07:16:36;;;;;;;13.73;2.60;;;;;;;11.89;65.54;102162.38;4995327;28;20293;-79
2023/06/02 07:19:08;;;;;;;11.02;2.90;;;;;;;11.45;64.11;102064.38;4994990;28;20435;-78
2023/06/02 07:21:57;;;;;;;11.20;2.83;;;;;;;11.64;63.62;102109.16;4995099;28;20046;-80
2023/06/02 07:24:24;;;;;;;15.60;4.17;;;;;;;11.10;63.39;102032.38;4916195;29;20112;-80
2023/06/02 07:26:49;;;;;;;10.80;2.60;;;;;;;11.05;64.46;102055.88;4915835;29;20284;-79
2023/06/02 07:29:25;;;;;;;11.00;2.65;;;;;;;11.16;64.00;102045.88;4915954;29;20051;-79
2023/06/02 07:31:50;;;;;;;9.98;2.50;;;;;;;12.22;63.64;102194.44;4916163;29;20064;-80
2023/06/02 07:34:24;;;;;;;14.48;2.90;;;;;;;11.91;63.86;102119.16;4900073;29;20127;-79
2023/06/02 07:39:56;;;;;;;11.85;2.88;;;;;;;12.41;62.37;102178.84;4915995;29;20058;-79
2023/06/02 07:49:05;;;;;;;12.02;3.33;;;;;;;12.80;62.66;102163.06;4918028;28;20034;-80
2023/06/02 07:51:30;;;;;;;13.82;3.10;;;;;;;13.01;60.07;102131.75;4915548;29;20032;-80
2023/06/02 07:53:59;;;;;;;10.00;2.67;;;;;;;13.67;58.26;102225.97;4915631;29;20036;-78
2023/06/02 07:56:24;;;;;;;9.82;2.40;;;;;;;13.47;58.20;102226.22;4899301;29;20083;-79
2023/06/02 07:58:49;;;;;;;12.57;2.75;;;;;;;13.47;58.13;102202.84;4915144;29;20063;-80
2023/06/02 08:01:15;;;;;;;13.18;3.08;;;;;;;13.60;59.55;102226.38;4948288;28;20401;-80
2023/06/02 08:03:40;;;;;;;10.88;2.67;;;;;;;13.81;59.36;102227.00;4994432;28;20112;-81
2023/06/02 08:06:06;;;;;;;12.95;2.60;;;;;;;13.59;56.95;102220.38;4994596;28;20109;-81
2023/06/02 08:08:32;;;;;;;13.32;2.78;;;;;;;13.58;59.09;102207.47;4994382;28;20076;-80
2023/06/02 08:10:57;;;;;;;8.88;2.67;;;;;;;14.08;59.84;102228.09;4993012;28;20019;-79
2023/06/02 08:13:23;;;;;;;10.45;3.05;;;;;;;14.54;59.39;102222.91;4994294;28;20029;-83
2023/06/02 08:15:48;;;;;;;10.75;2.92;;;;;;;14.56;55.19;102224.50;4994380;28;20034;-81
2023/06/02 08:18:15;;;;;;;11.02;2.88;;;;;;;14.33;56.34;102227.53;4989831;28;20030;-77
2023/06/02 08:20:41;;;;;;;8.82;2.33;;;;;;;14.29;56.35;102203.50;4974604;28;20030;-78
2023/06/02 08:23:08;;;;;;;10.63;2.67;;;;;;;14.42;56.21;102214.00;4974322;28;20033;-79
2023/06/02 08:25:37;;;;;;;10.77;3.08;;;;;;;14.24;55.46;102181.28;4974527;28;20018;-83
2023/06/02 08:28:05;;;;;;;9.55;2.78;;;;;;;14.84;57.95;102220.28;4974399;28;20026;-79
2023/06/02 08:30:31;;;;;;;11.40;2.53;;;;;;;14.84;55.92;102208.13;4974491;28;20022;-81
2023/06/02 08:32:56;;;;;;;13.55;3.70;;;;;;;14.97;65.84;102221.25;4974664;28;20026;-80
2023/06/02 08:35:22;;;;;;;11.60;3.70;;;;;;;14.84;58.72;102228.91;4974126;28;20027;-80
2023/06/02 08:37:48;;;;;;;10.73;2.92;;;;;;;14.56;57.09;102214.13;4974318;28;20023;-81
2023/06/02 08:40:16;;;;;;;10.32;2.90;;;;;;;14.62;59.24;102205.94;4972844;28;20045;-79
2023/06/02 08:42:42;;;;;;;10.88;3.10;;;;;;;14.85;65.37;102180.38;4974122;28;20027;-80
2023/06/02 08:45:08;;;;;;;11.52;2.88;;;;;;;15.35;57.23;102223.31;4974217;28;20133;-79
2023/06/02 08:47:33;;;;;;;12.45;3.10;;;;;;;15.14;55.54;102210.69;4974406;28;20061;-79
2023/06/02 08:50:05;;;;;;;13.40;3.47;;;;;;;15.25;64.24;102190.97;4973875;28;20102;-79
2023/06/02 08:52:34;;;;;;;9.85;2.75;;;;;;;15.72;63.72;102217.53;4973777;28;20026;-79
2023/06/02 08:55:03;;;;;;;9.85;2.70;;;;;;;15.89;54.35;102205.22;4973586;28;20538;-81
2023/06/02 08:57:28;;;;;;;11.52;2.88;;;;;;;16.25;55.29;102215.91;4973614;28;20052;-81
2023/06/02 08:59:54;;;;;;;13.38;2.97;;;;;;;16.33;54.59;102215.41;4973730;28;20101;-80
2023/06/02 09:02:19;;;;;;;11.75;2.92;;;;;;;16.19;52.42;102213.69;4973832;28;20026;-77
2023/06/02 09:04:45;;;;;;;8.50;3.13;;;;;;;15.66;52.32;102193.66;4973888;28;20073;-77
2023/06/02 09:07:13;;;;;;;10.13;2.53;;;;;;;15.64;56.24;102212.00;4974137;28;20027;-78
2023/06/02 09:15:09;;;;;;;9.95;3.10;;;;;;;14.37;56.40;102030.72;6057453;22;20024;-80
2023/06/02 09:17:34;;;;;;;8.10;2.85;;;;;;;15.43;56.23;102210.66;4992976;28;20508;-77
2023/06/02 09:20:30;;;;;;;11.35;2.53;;;;;;;15.45;55.86;102214.03;4991823;28;20125;-79
2023/06/02 09:23:06;;;;;;;12.15;3.08;;;;;;;14.10;55.49;102013.22;4993155;28;20022;-80
2023/06/02 09:25:35;;;;;;;15.60;3.35;;;;;;;14.93;54.31;102144.31;4975725;28;20108;-80
2023/06/02 09:31:56;;;;;;;12.15;2.95;;;;;;;14.92;55.91;102211.09;6014327;22;20389;-80
2023/06/02 09:35:45;;;;;;;;;;;;;;;;;;;;;
2023/06/02 09:38:50;;;;;;;9.77;2.85;;;;;;;14.93;57.21;102210.19;4992572;28;20030;-80
2023/06/02 09:41:15;;;;;;;8.82;2.42;;;;;;;14.07;55.18;102057.56;4942150;28;20038;-80
2023/06/02 09:43:49;;;;;;;10.70;3.20;;;;;;;14.18;56.28;102065.56;5051565;23;20383;-78
2023/06/02 09:46:31;;;;;;;10.25;3.22;;;;;;;14.28;57.17;102043.31;4992737;28;20042;-80
2023/06/02 09:48:59;;;;;;;9.13;3.00;;;;;;;14.74;56.00;102089.13;4952069;29;20090;-78
2023/06/02 09:51:38;;;;;;;11.45;3.20;;;;;;;15.53;55.87;102172.72;4943448;29;20504;-82
2023/06/02 09:54:05;;;;;;;11.40;3.40;;;;;;;15.23;55.01;102126.00;4946308;29;20424;-80
2023/06/02 09:56:34;;;;;;;9.57;2.97;;;;;;;15.72;55.27;102207.13;4952067;29;20270;-79
2023/06/02 09:59:00;;;;;;;9.98;2.80;;;;;;;15.86;55.08;102206.25;4951831;29;20039;-81
2023/06/02 10:01:26;;;;;;;15.88;4.00;;;;;;;15.99;54.92;102198.50;4952068;29;20035;-81
2023/06/02 10:03:51;;;;;;;11.40;3.50;;;;;;;15.56;54.73;102161.28;4951963;28;20118;-78
2023/06/02 10:06:53;;;;;;;13.55;3.83;;;;;;;15.63;56.31;102204.25;4953551;29;20035;-78
2023/06/02 10:09:41;;;;;;;9.95;3.15;;;;;;;15.76;56.50;102185.16;4955532;29;20472;-79
2023/06/02 10:12:32;;;;;;;11.70;3.30;;;;;;;16.07;55.16;102201.44;4955551;29;20035;-75
2023/06/02 10:15:40;;;;;;;11.40;3.13;;;;;;;15.95;55.61;102191.81;4955302;29;20055;-80
2023/06/02 10:18:33;;;;;;;12.85;3.65;;;;;;;16.28;54.94;102192.25;4955479;29;20126;-79
2023/06/02 10:21:09;;;;;;;9.80;3.20;;;;;;;16.20;54.17;102157.19;4993008;28;20039;-79
2023/06/02 10:23:47;;;;;;;10.25;3.72;;;;;;;16.42;54.55;102193.09;4996276;28;20034;-79
2023/06/02 10:26:36;;;;;;;10.63;3.45;;;;;;;16.34;53.67;102198.84;4996403;28;20034;-79
2023/06/02 10:29:03;;;;;;;10.07;3.22;;;;;;;16.19;54.47;102207.63;4996090;28;20026;-78
2023/06/02 10:31:31;;;;;;;12.23;3.30;;;;;;;16.00;54.67;102185.38;4995970;28;20020;-79
2023/06/02 10:33:59;;;;;;;12.63;3.60;;;;;;;16.11;55.15;102195.09;4995982;28;20026;-80
2023/06/02 10:36:25;;;;;;;15.60;4.20;;;;;;;16.31;55.36;102185.97;4995841;28;20489;-80
2023/06/02 10:38:50;;;;;;;10.35;3.40;;;;;;;16.21;55.27;102182.31;4996251;28;20026;-79
2023/06/02 10:41:21;;;;;;;12.60;3.80;;;;;;;16.42;56.42;102169.63;4996122;28;20423;-79
2023/06/02 10:44:25;;;;;;;10.07;3.60;;;;;;;16.78;55.55;102205.50;4995768;28;20136;-79
2023/06/02 10:47:18;;;;;;;12.00;4.40;;;;;;;16.79;54.96;102205.41;4995687;28;20088;-79
2023/06/02 10:49:58;;;;;;;13.77;3.88;;;;;;;16.64;54.41;102175.09;4978312;28;20034;-80
2023/06/02 10:52:24;;;;;;;11.52;3.40;;;;;;;16.79;53.94;102194.97;4995711;28;20109;-80
2023/06/02 10:55:25;;;;;;;12.70;3.97;;;;;;;16.28;55.35;102158.34;4995480;28;20033;-79
2023/06/02 10:58:07;;;;;;;12.73;4.25;;;;;;;16.30;55.61;102200.78;4995614;28;20050;-80
2023/06/02 11:00:32;;;;;;;13.63;4.43;;;;;;;16.32;55.66;102191.13;4976518;28;20018;-76
2023/06/02 11:03:26;;;;;;;14.00;4.15;;;;;;;16.10;56.23;102162.16;4996017;28;20512;-80
2023/06/02 11:06:15;;;;;;;9.20;3.88;;;;;;;16.54;55.85;102187.94;4995729;28;20114;-80
2023/06/02 11:08:40;;;;;;;11.93;4.22;;;;;;;16.18;55.27;102122.56;4977648;28;20034;-79
2023/06/02 11:11:06;;;;;;;10.45;3.95;;;;;;;16.83;55.78;102193.00;4995267;28;20113;-79
2023/06/02 11:13:58;;;;;;;11.40;4.00;;;;;;;17.03;55.17;102202.91;4995308;28;20015;-80
2023/06/02 11:16:27;;;;;;;13.07;3.97;;;;;;;16.80;54.33;102160.09;4994696;28;20034;-83
2023/06/02 11:18:53;;;;;;;12.82;3.60;;;;;;;17.24;55.05;102195.38;4995364;28;20027;-83
2023/06/02 11:21:22;;;;;;;11.13;3.90;;;;;;;17.11;53.62;102186.72;4995401;28;20033;-82
2023/06/02 11:23:48;;;;;;;10.98;3.75;;;;;;;16.99;55.11;102166.69;4977732;28;20121;-83
2023/06/02 11:26:18;;;;;;;13.68;3.72;;;;;;;17.35;55.02;102192.00;4995038;28;20117;-79
2023/06/02 11:28:44;;;;;;;15.90;4.22;;;;;;;17.52;53.55;102190.84;4993708;28;20425;-82
2023/06/02 11:31:13;;;;;;;12.38;3.83;;;;;;;17.46;55.15;102195.53;4994789;28;20109;-84
2023/06/02 11:33:49;;;;;;;16.77;4.53;;;;;;;17.48;53.85;102188.44;5002310;23;20418;-82
2023/06/02 11:36:26;;;;;;;11.65;3.95;;;;;;;17.58;54.20;102188.59;4994777;28;20022;-81
2023/06/02 11:39:01;;;;;;;11.48;4.05;;;;;;;17.53;53.81;102187.28;4994750;28;20486;-83
2023/06/02 11:41:27;;;;;;;12.38;4.57;;;;;;;17.08;54.38;102100.78;4994663;28;20019;-83
2023/06/02 11:44:02;;;;;;;13.38;4.70;;;;;;;17.39;53.85;102131.63;4992809;28;20038;-83
2023/06/02 11:46:28;;;;;;;13.48;4.63;;;;;;;17.54;54.60;102191.56;4994680;28;20036;-83
2023/06/02 11:48:53;;;;;;;10.55;4.47;;;;;;;17.42;53.54;102199.31;4994538;28;20471;-82
2023/06/02 11:51:22;;;;;;;10.88;4.32;;;;;;;17.50;53.99;102185.69;4976907;28;20051;-83
2023/06/02 11:54:07;;;;;;;12.40;4.45;;;;;;;17.21;54.25;102114.66;4976984;28;20029;-83